sensor_id;sensor_type;location;lat;lon;timestamp;pressure;altitude;pressure_sealevel;temperature;humidity
72961;BME280;61141;46.204;19.774;2024-03-08T00:01:38;100740.16;;;6.31;100.00
72961;BME280;61141;46.204;19.774;2024-03-08T00:04:41;100746.53;;;6.35;100.00
72961;BME280;61141;46.204;19.774;2024-03-08T00:07:44;100744.78;;;6.30;100.00
72961;BME280;61141;46.204;19.774;2024-03-08T00:10:47;100739.34;;;6.30;100.00
72961;BME280;61141;46.204;19.774;2024-03-08T00:13:50;100723.62;;;6.15;100.00
72961;BME280;61141;46.204;19.774;2024-03-08T00:16:55;100727.97;;;6.08;100.00
72961;BME280;61141;46.204;19.774;2024-03-08T00:19:57;100729.78;;;6.24;100.00
72961;BME280;61141;46.204;19.774;2024-03-08T00:23:00;100714.53;;;6.11;100.00
72961;BME280;61141;46.204;19.774;2024-03-08T00:26:03;100744.25;;;6.16;100.00
72961;BME280;61141;46.204;19.774;2024-03-08T00:29:06;100739.25;;;6.27;100.00
72961;BME280;61141;46.204;19.774;2024-03-08T00:32:10;100751.44;;;6.21;100.00
72961;BME280;61141;46.204;19.774;2024-03-08T00:35:13;100754.41;;;6.28;100.00
72961;BME280;61141;46.204;19.774;2024-03-08T00:38:16;100742.53;;;6.32;100.00
72961;BME280;61141;46.204;19.774;2024-03-08T00:41:21;100742.94;;;6.22;100.00
72961;BME280;61141;46.204;19.774;2024-03-08T00:44:24;100739.00;;;6.11;100.00
72961;BME280;61141;46.204;19.774;2024-03-08T00:47:27;100744.25;;;6.16;100.00
72961;BME280;61141;46.204;19.774;2024-03-08T00:50:30;100738.16;;;6.19;100.00
72961;BME280;61141;46.204;19.774;2024-03-08T00:53:33;100738.91;;;6.28;100.00
72961;BME280;61141;46.204;19.774;2024-03-08T00:56:36;100738.25;;;6.31;100.00
72961;BME280;61141;46.204;19.774;2024-03-08T00:59:41;100738.63;;;6.42;100.00
72961;BME280;61141;46.204;19.774;2024-03-08T01:02:44;100735.84;;;6.30;100.00
72961;BME280;61141;46.204;19.774;2024-03-08T01:05:47;100735.16;;;6.12;100.00
72961;BME280;61141;46.204;19.774;2024-03-08T01:08:50;100733.38;;;6.16;100.00
72961;BME280;61141;46.204;19.774;2024-03-08T01:11:55;100736.03;;;6.25;100.00
72961;BME280;61141;46.204;19.774;2024-03-08T01:14:58;100729.13;;;6.27;100.00
72961;BME280;61141;46.204;19.774;2024-03-08T01:18:01;100731.59;;;6.20;100.00
72961;BME280;61141;46.204;19.774;2024-03-08T01:21:04;100734.38;;;6.32;100.00
72961;BME280;61141;46.204;19.774;2024-03-08T01:24:07;100731.00;;;6.35;100.00
72961;BME280;61141;46.204;19.774;2024-03-08T01:27:10;100738.78;;;6.45;100.00
72961;BME280;61141;46.204;19.774;2024-03-08T01:30:15;100732.69;;;6.48;100.00
72961;BME280;61141;46.204;19.774;2024-03-08T01:33:19;100735.19;;;6.54;100.00
72961;BME280;61141;46.204;19.774;2024-03-08T01:36:25;100734.19;;;6.58;100.00
72961;BME280;61141;46.204;19.774;2024-03-08T01:39:28;100737.56;;;6.55;100.00
72961;BME280;61141;46.204;19.774;2024-03-08T01:42:31;100729.91;;;6.57;100.00
72961;BME280;61141;46.204;19.774;2024-03-08T01:45:33;100713.44;;;6.54;100.00
72961;BME280;61141;46.204;19.774;2024-03-08T01:48:37;100726.97;;;6.62;100.00
72961;BME280;61141;46.204;19.774;2024-03-08T01:51:41;100720.19;;;6.68;100.00
72961;BME280;61141;46.204;19.774;2024-03-08T01:54:45;100722.13;;;6.68;100.00
72961;BME280;61141;46.204;19.774;2024-03-08T01:57:47;100720.31;;;6.72;100.00
72961;BME280;61141;46.204;19.774;2024-03-08T02:00:52;100720.97;;;6.69;100.00
72961;BME280;61141;46.204;19.774;2024-03-08T02:03:55;100725.03;;;6.63;100.00
72961;BME280;61141;46.204;19.774;2024-03-08T02:06:58;100723.91;;;6.64;100.00
72961;BME280;61141;46.204;19.774;2024-03-08T02:10:01;100719.97;;;6.53;100.00
72961;BME280;61141;46.204;19.774;2024-03-08T02:13:04;100729.63;;;6.50;100.00
72961;BME280;61141;46.204;19.774;2024-03-08T02:16:07;100732.03;;;6.52;100.00
72961;BME280;61141;46.204;19.774;2024-03-08T02:19:11;100726.56;;;6.52;100.00
72961;BME280;61141;46.204;19.774;2024-03-08T02:22:14;100724.31;;;6.54;100.00
72961;BME280;61141;46.204;19.774;2024-03-08T02:25:18;100722.84;;;6.56;100.00
72961;BME280;61141;46.204;19.774;2024-03-08T02:28:22;100727.34;;;6.52;100.00
72961;BME280;61141;46.204;19.774;2024-03-08T02:31:25;100728.34;;;6.47;100.00
72961;BME280;61141;46.204;19.774;2024-03-08T02:34:27;100723.56;;;6.44;100.00
72961;BME280;61141;46.204;19.774;2024-03-08T02:37:30;100725.19;;;6.45;100.00
72961;BME280;61141;46.204;19.774;2024-03-08T02:40:33;100730.81;;;6.40;100.00
72961;BME280;61141;46.204;19.774;2024-03-08T02:43:36;100733.34;;;6.45;100.00
72961;BME280;61141;46.204;19.774;2024-03-08T02:46:39;100735.84;;;6.50;100.00
72961;BME280;61141;46.204;19.774;2024-03-08T02:49:41;100733.28;;;6.54;100.00
72961;BME280;61141;46.204;19.774;2024-03-08T02:52:44;100734.66;;;6.60;100.00
72961;BME280;61141;46.204;19.774;2024-03-08T02:55:49;100731.31;;;6.55;100.00
72961;BME280;61141;46.204;19.774;2024-03-08T02:58:52;100736.78;;;6.55;100.00
72961;BME280;61141;46.204;19.774;2024-03-08T03:01:55;100739.69;;;6.49;100.00
72961;BME280;61141;46.204;19.774;2024-03-08T03:04:58;100733.66;;;6.44;100.00
72961;BME280;61141;46.204;19.774;2024-03-08T03:08:01;100734.16;;;6.46;100.00
72961;BME280;61141;46.204;19.774;2024-03-08T03:11:04;100744.34;;;6.49;100.00
72961;BME280;61141;46.204;19.774;2024-03-08T03:14:06;100748.81;;;6.54;100.00
72961;BME280;61141;46.204;19.774;2024-03-08T03:17:11;100742.81;;;6.60;100.00
72961;BME280;61141;46.204;19.774;2024-03-08T03:20:14;100743.28;;;6.62;100.00
72961;BME280;61141;46.204;19.774;2024-03-08T03:23:17;100743.81;;;6.56;100.00
72961;BME280;61141;46.204;19.774;2024-03-08T03:26:23;100747.12;;;6.61;100.00
72961;BME280;61141;46.204;19.774;2024-03-08T03:29:26;100750.13;;;6.47;100.00
72961;BME280;61141;46.204;19.774;2024-03-08T03:32:28;100742.91;;;6.52;100.00
72961;BME280;61141;46.204;19.774;2024-03-08T03:35:32;100748.25;;;6.39;100.00
72961;BME280;61141;46.204;19.774;2024-03-08T03:38:35;100741.00;;;6.43;100.00
72961;BME280;61141;46.204;19.774;2024-03-08T03:41:38;100740.41;;;6.38;100.00
72961;BME280;61141;46.204;19.774;2024-03-08T03:44:44;100745.41;;;6.36;100.00
72961;BME280;61141;46.204;19.774;2024-03-08T03:47:47;100740.75;;;6.36;100.00
72961;BME280;61141;46.204;19.774;2024-03-08T03:50:49;100733.44;;;6.49;100.00
72961;BME280;61141;46.204;19.774;2024-03-08T03:53:52;100739.91;;;6.44;100.00
72961;BME280;61141;46.204;19.774;2024-03-08T03:56:55;100740.41;;;6.38;100.00
72961;BME280;61141;46.204;19.774;2024-03-08T03:59:58;100742.31;;;6.46;100.00
72961;BME280;61141;46.204;19.774;2024-03-08T04:03:01;100734.97;;;6.38;100.00
72961;BME280;61141;46.204;19.774;2024-03-08T04:06:04;100741.87;;;6.35;100.00
72961;BME280;61141;46.204;19.774;2024-03-08T04:09:07;100735.72;;;6.26;100.00
72961;BME280;61141;46.204;19.774;2024-03-08T04:12:10;100738.03;;;6.36;100.00
72961;BME280;61141;46.204;19.774;2024-03-08T04:15:13;100744.50;;;6.32;100.00
72961;BME280;61141;46.204;19.774;2024-03-08T04:18:16;100743.56;;;6.48;100.00
72961;BME280;61141;46.204;19.774;2024-03-08T04:21:20;100745.87;;;6.59;100.00
72961;BME280;61141;46.204;19.774;2024-03-08T04:24:23;100752.31;;;6.54;100.00
72961;BME280;61141;46.204;19.774;2024-03-08T04:27:26;100744.69;;;6.47;100.00
72961;BME280;61141;46.204;19.774;2024-03-08T04:30:29;100749.91;;;6.53;100.00
72961;BME280;61141;46.204;19.774;2024-03-08T04:33:32;100751.12;;;6.43;100.00
72961;BME280;61141;46.204;19.774;2024-03-08T04:36:38;100754.63;;;6.43;100.00
72961;BME280;61141;46.204;19.774;2024-03-08T04:39:40;100749.06;;;6.40;100.00
72961;BME280;61141;46.204;19.774;2024-03-08T04:42:43;100747.59;;;6.42;100.00
72961;BME280;61141;46.204;19.774;2024-03-08T04:45:46;100752.37;;;6.45;100.00
72961;BME280;61141;46.204;19.774;2024-03-08T04:48:49;100756.69;;;6.46;100.00
72961;BME280;61141;46.204;19.774;2024-03-08T04:51:52;100742.53;;;6.32;100.00
72961;BME280;61141;46.204;19.774;2024-03-08T04:54:55;100759.84;;;6.28;100.00
72961;BME280;61141;46.204;19.774;2024-03-08T04:57:57;100762.06;;;6.34;100.00
72961;BME280;61141;46.204;19.774;2024-03-08T05:01:01;100758.34;;;6.39;100.00
72961;BME280;61141;46.204;19.774;2024-03-08T05:04:04;100763.34;;;6.37;100.00
72961;BME280;61141;46.204;19.774;2024-03-08T05:07:11;100762.31;;;6.41;100.00
72961;BME280;61141;46.204;19.774;2024-03-08T05:10:14;100761.47;;;6.29;100.00
72961;BME280;61141;46.204;19.774;2024-03-08T05:13:20;100764.59;;;6.39;100.00
72961;BME280;61141;46.204;19.774;2024-03-08T05:16:23;100767.50;;;6.34;100.00
72961;BME280;61141;46.204;19.774;2024-03-08T05:19:26;100762.66;;;6.40;100.00
72961;BME280;61141;46.204;19.774;2024-03-08T05:22:30;100768.72;;;6.45;100.00
72961;BME280;61141;46.204;19.774;2024-03-08T05:25:33;100767.25;;;6.48;100.00
72961;BME280;61141;46.204;19.774;2024-03-08T05:28:36;100771.94;;;6.39;100.00
72961;BME280;61141;46.204;19.774;2024-03-08T05:31:50;100774.88;;;6.34;100.00
72961;BME280;61141;46.204;19.774;2024-03-08T05:34:53;100773.16;;;6.29;100.00
72961;BME280;61141;46.204;19.774;2024-03-08T05:37:55;100777.13;;;6.32;100.00
72961;BME280;61141;46.204;19.774;2024-03-08T05:40:58;100776.78;;;6.33;100.00
72961;BME280;61141;46.204;19.774;2024-03-08T05:44:01;100770.53;;;6.33;100.00
72961;BME280;61141;46.204;19.774;2024-03-08T05:47:04;100782.03;;;6.38;100.00
72961;BME280;61141;46.204;19.774;2024-03-08T05:50:07;100777.38;;;6.39;100.00
72961;BME280;61141;46.204;19.774;2024-03-08T05:53:13;100770.62;;;6.45;100.00
72961;BME280;61141;46.204;19.774;2024-03-08T05:56:16;100777.78;;;6.49;100.00
72961;BME280;61141;46.204;19.774;2024-03-08T05:59:18;100781.78;;;6.52;100.00
72961;BME280;61141;46.204;19.774;2024-03-08T06:02:22;100781.91;;;6.56;100.00
72961;BME280;61141;46.204;19.774;2024-03-08T06:05:25;100782.06;;;6.59;100.00
72961;BME280;61141;46.204;19.774;2024-03-08T06:08:28;100781.72;;;6.61;100.00
72961;BME280;61141;46.204;19.774;2024-03-08T06:11:33;100780.19;;;6.72;100.00
72961;BME280;61141;46.204;19.774;2024-03-08T06:14:36;100786.97;;;6.66;100.00
72961;BME280;61141;46.204;19.774;2024-03-08T06:17:39;100782.37;;;6.58;100.00
72961;BME280;61141;46.204;19.774;2024-03-08T06:20:41;100784.94;;;6.63;100.00
72961;BME280;61141;46.204;19.774;2024-03-08T06:23:46;100794.25;;;6.53;100.00
72961;BME280;61141;46.204;19.774;2024-03-08T06:26:49;100789.87;;;6.61;100.00
72961;BME280;61141;46.204;19.774;2024-03-08T06:29:52;100789.00;;;6.69;100.00
72961;BME280;61141;46.204;19.774;2024-03-08T06:32:54;100795.59;;;6.68;100.00
72961;BME280;61141;46.204;19.774;2024-03-08T06:35:58;100784.94;;;6.33;100.00
72961;BME280;61141;46.204;19.774;2024-03-08T06:39:00;100798.25;;;6.56;100.00
72961;BME280;61141;46.204;19.774;2024-03-08T06:42:03;100804.88;;;6.67;100.00
72961;BME280;61141;46.204;19.774;2024-03-08T06:45:08;100794.16;;;6.70;100.00
72961;BME280;61141;46.204;19.774;2024-03-08T06:48:12;100797.91;;;6.78;100.00
72961;BME280;61141;46.204;19.774;2024-03-08T06:51:15;100804.22;;;6.90;100.00
72961;BME280;61141;46.204;19.774;2024-03-08T06:54:18;100810.34;;;6.87;100.00
72961;BME280;61141;46.204;19.774;2024-03-08T06:57:21;100804.91;;;6.87;100.00
72961;BME280;61141;46.204;19.774;2024-03-08T07:00:24;100806.69;;;6.83;100.00
72961;BME280;61141;46.204;19.774;2024-03-08T07:03:29;100806.25;;;7.47;100.00
72961;BME280;61141;46.204;19.774;2024-03-08T07:06:32;100803.06;;;7.45;100.00
72961;BME280;61141;46.204;19.774;2024-03-08T07:09:39;100801.53;;;7.23;100.00
72961;BME280;61141;46.204;19.774;2024-03-08T07:12:42;100811.53;;;6.98;100.00
72961;BME280;61141;46.204;19.774;2024-03-08T07:15:45;100805.25;;;7.19;100.00
72961;BME280;61141;46.204;19.774;2024-03-08T07:18:48;100813.19;;;6.91;100.00
72961;BME280;61141;46.204;19.774;2024-03-08T07:21:54;100806.25;;;7.14;100.00
72961;BME280;61141;46.204;19.774;2024-03-08T07:24:57;100806.72;;;7.16;100.00
72961;BME280;61141;46.204;19.774;2024-03-08T07:28:19;100813.78;;;7.17;100.00
72961;BME280;61141;46.204;19.774;2024-03-08T07:31:22;100808.41;;;7.08;100.00
72961;BME280;61141;46.204;19.774;2024-03-08T07:34:30;100812.31;;;6.99;100.00
72961;BME280;61141;46.204;19.774;2024-03-08T07:37:34;100814.25;;;6.98;100.00
72961;BME280;61141;46.204;19.774;2024-03-08T07:40:38;100815.69;;;6.96;100.00
72961;BME280;61141;46.204;19.774;2024-03-08T07:43:47;100808.00;;;6.77;100.00
72961;BME280;61141;46.204;19.774;2024-03-08T07:46:51;100818.03;;;7.06;100.00
72961;BME280;61141;46.204;19.774;2024-03-08T07:49:58;100814.16;;;7.07;100.00
72961;BME280;61141;46.204;19.774;2024-03-08T07:53:07;100819.63;;;6.86;100.00
72961;BME280;61141;46.204;19.774;2024-03-08T07:56:10;100798.75;;;6.90;100.00
72961;BME280;61141;46.204;19.774;2024-03-08T07:59:15;100813.78;;;7.17;100.00
72961;BME280;61141;46.204;19.774;2024-03-08T08:02:18;100815.19;;;7.35;100.00
72961;BME280;61141;46.204;19.774;2024-03-08T08:05:21;100820.31;;;7.37;100.00
72961;BME280;61141;46.204;19.774;2024-03-08T08:08:24;100816.53;;;7.29;100.00
72961;BME280;61141;46.204;19.774;2024-03-08T08:11:29;100812.75;;;7.22;100.00
72961;BME280;61141;46.204;19.774;2024-03-08T08:14:32;100817.13;;;6.81;100.00
72961;BME280;61141;46.204;19.774;2024-03-08T08:17:35;100812.31;;;6.99;100.00
72961;BME280;61141;46.204;19.774;2024-03-08T08:20:37;100813.72;;;7.38;100.00
72961;BME280;61141;46.204;19.774;2024-03-08T08:23:40;100817.66;;;7.61;100.00
72961;BME280;61141;46.204;19.774;2024-03-08T08:26:43;100816.31;;;7.67;100.00
72961;BME280;61141;46.204;19.774;2024-03-08T08:29:47;100821.88;;;7.05;100.00
72961;BME280;61141;46.204;19.774;2024-03-08T08:32:50;100827.37;;;7.17;100.00
72961;BME280;61141;46.204;19.774;2024-03-08T08:35:53;100820.97;;;7.01;100.00
72961;BME280;61141;46.204;19.774;2024-03-08T08:38:56;100815.53;;;7.01;100.00
72961;BME280;61141;46.204;19.774;2024-03-08T08:42:01;100817.56;;;7.04;100.00
72961;BME280;61141;46.204;19.774;2024-03-08T08:45:06;100819.87;;;7.14;100.00
72961;BME280;61141;46.204;19.774;2024-03-08T08:48:18;100826.81;;;7.12;100.00
72961;BME280;61141;46.204;19.774;2024-03-08T08:51:21;100823.72;;;7.13;100.00
72961;BME280;61141;46.204;19.774;2024-03-08T08:54:25;100821.06;;;7.04;100.00
72961;BME280;61141;46.204;19.774;2024-03-08T08:57:29;100818.31;;;6.72;100.00
72961;BME280;61141;46.204;19.774;2024-03-08T09:00:35;100829.97;;;7.14;100.00
72961;BME280;61141;46.204;19.774;2024-03-08T09:03:38;100829.38;;;7.08;100.00
72961;BME280;61141;46.204;19.774;2024-03-08T09:06:43;100827.59;;;7.12;100.00
72961;BME280;61141;46.204;19.774;2024-03-08T09:09:47;100826.22;;;7.06;100.00
72961;BME280;61141;46.204;19.774;2024-03-08T09:12:50;100819.34;;;7.21;100.00
72961;BME280;61141;46.204;19.774;2024-03-08T09:15:53;100823.06;;;7.16;100.00
72961;BME280;61141;46.204;19.774;2024-03-08T09:18:56;100817.09;;;7.23;100.00
72961;BME280;61141;46.204;19.774;2024-03-08T09:21:59;100817.47;;;7.33;100.00
72961;BME280;61141;46.204;19.774;2024-03-08T09:25:02;100814.81;;;7.25;100.00
72961;BME280;61141;46.204;19.774;2024-03-08T09:28:07;100819.72;;;7.31;100.00
72961;BME280;61141;46.204;19.774;2024-03-08T09:31:12;100809.38;;;7.25;100.00
72961;BME280;61141;46.204;19.774;2024-03-08T09:34:14;100823.63;;;7.09;100.00
72961;BME280;61141;46.204;19.774;2024-03-08T09:37:27;100806.69;;;7.04;100.00
72961;BME280;61141;46.204;19.774;2024-03-08T09:40:29;100830.13;;;7.17;100.00
72961;BME280;61141;46.204;19.774;2024-03-08T09:43:32;100819.06;;;7.34;100.00
72961;BME280;61141;46.204;19.774;2024-03-08T09:46:35;100812.09;;;7.25;100.00
72961;BME280;61141;46.204;19.774;2024-03-08T09:49:39;100823.84;;;7.37;100.00
72961;BME280;61141;46.204;19.774;2024-03-08T09:52:48;100826.25;;;7.18;100.00
72961;BME280;61141;46.204;19.774;2024-03-08T09:55:52;100810.28;;;7.29;100.00
72961;BME280;61141;46.204;19.774;2024-03-08T09:58:54;100823.28;;;7.44;100.00
72961;BME280;61141;46.204;19.774;2024-03-08T10:02:17;100820.69;;;7.47;100.00
72961;BME280;61141;46.204;19.774;2024-03-08T10:05:21;100824.75;;;7.41;100.00
72961;BME280;61141;46.204;19.774;2024-03-08T10:08:29;100822.03;;;7.41;100.00
72961;BME280;61141;46.204;19.774;2024-03-08T10:11:32;100835.69;;;7.53;100.00
72961;BME280;61141;46.204;19.774;2024-03-08T10:14:38;100824.06;;;7.44;100.00
72961;BME280;61141;46.204;19.774;2024-03-08T10:17:42;100823.66;;;7.54;100.00
72961;BME280;61141;46.204;19.774;2024-03-08T10:20:47;100834.00;;;7.61;100.00
72961;BME280;61141;46.204;19.774;2024-03-08T10:24:10;100838.41;;;7.53;100.00
72961;BME280;61141;46.204;19.774;2024-03-08T10:27:18;100818.03;;;7.39;100.00
72961;BME280;61141;46.204;19.774;2024-03-08T10:30:22;100833.37;;;7.43;100.00
72961;BME280;61141;46.204;19.774;2024-03-08T10:33:25;100838.66;;;7.60;100.00
72961;BME280;61141;46.204;19.774;2024-03-08T10:36:28;100834.31;;;7.59;100.00
72961;BME280;61141;46.204;19.774;2024-03-08T10:39:35;100834.38;;;7.72;100.00
72961;BME280;61141;46.204;19.774;2024-03-08T10:42:40;100833.69;;;7.75;100.00
72961;BME280;61141;46.204;19.774;2024-03-08T10:45:47;100833.69;;;7.75;100.00
72961;BME280;61141;46.204;19.774;2024-03-08T10:48:52;100824.94;;;7.69;100.00
72961;BME280;61141;46.204;19.774;2024-03-08T10:51:58;100832.88;;;7.62;100.00
72961;BME280;61141;46.204;19.774;2024-03-08T10:55:01;100819.28;;;7.41;100.00
72961;BME280;61141;46.204;19.774;2024-03-08T10:58:04;100813.09;;;7.53;100.00
72961;BME280;61141;46.204;19.774;2024-03-08T11:01:08;100823.91;;;7.61;100.00
72961;BME280;61141;46.204;19.774;2024-03-08T11:04:14;100821.75;;;7.67;100.00
72961;BME280;61141;46.204;19.774;2024-03-08T11:07:22;100813.22;;;7.68;100.00
72961;BME280;61141;46.204;19.774;2024-03-08T11:10:25;100818.47;;;7.74;100.00
72961;BME280;61141;46.204;19.774;2024-03-08T11:13:42;100816.44;;;7.83;100.00
72961;BME280;61141;46.204;19.774;2024-03-08T11:16:47;100811.44;;;7.85;100.00
72961;BME280;61141;46.204;19.774;2024-03-08T11:19:50;100810.97;;;7.83;100.00
72961;BME280;61141;46.204;19.774;2024-03-08T11:23:00;100804.06;;;7.73;100.00
72961;BME280;61141;46.204;19.774;2024-03-08T11:26:20;100811.22;;;7.78;100.00
72961;BME280;61141;46.204;19.774;2024-03-08T11:32:35;100804.50;;;7.87;100.00
72961;BME280;61141;46.204;19.774;2024-03-08T11:35:39;100799.94;;;7.79;100.00
72961;BME280;61141;46.204;19.774;2024-03-08T11:38:44;100801.31;;;7.85;100.00
72961;BME280;61141;46.204;19.774;2024-03-08T11:41:46;100799.28;;;7.82;100.00
72961;BME280;61141;46.204;19.774;2024-03-08T11:44:51;100802.13;;;7.86;100.00
72961;BME280;61141;46.204;19.774;2024-03-08T11:47:54;100799.84;;;7.88;100.00
72961;BME280;61141;46.204;19.774;2024-03-08T11:51:01;100801.22;;;7.94;100.00
72961;BME280;61141;46.204;19.774;2024-03-08T11:54:04;100797.47;;;7.98;100.00
72961;BME280;61141;46.204;19.774;2024-03-08T11:57:09;100789.72;;;7.88;100.00
72961;BME280;61141;46.204;19.774;2024-03-08T12:00:16;100789.63;;;8.09;100.00
72961;BME280;61141;46.204;19.774;2024-03-08T12:03:29;100797.59;;;8.14;100.00
72961;BME280;61141;46.204;19.774;2024-03-08T12:06:41;100794.50;;;8.15;100.00
72961;BME280;61141;46.204;19.774;2024-03-08T12:10:14;100783.25;;;8.05;100.00
72961;BME280;61141;46.204;19.774;2024-03-08T12:13:20;100781.91;;;8.11;100.00
72961;BME280;61141;46.204;19.774;2024-03-08T12:16:23;100783.25;;;8.05;100.00
72961;BME280;61141;46.204;19.774;2024-03-08T12:19:27;100774.84;;;8.10;100.00
72961;BME280;61141;46.204;19.774;2024-03-08T12:22:31;100788.16;;;8.11;100.00
72961;BME280;61141;46.204;19.774;2024-03-08T12:25:34;100782.34;;;8.25;100.00
72961;BME280;61141;46.204;19.774;2024-03-08T12:28:39;100779.63;;;8.13;100.00
72961;BME280;61141;46.204;19.774;2024-03-08T12:31:42;100777.69;;;8.25;100.00
72961;BME280;61141;46.204;19.774;2024-03-08T12:34:52;100775.75;;;8.38;100.00
72961;BME280;61141;46.204;19.774;2024-03-08T12:37:56;100770.41;;;8.42;100.00
72961;BME280;61141;46.204;19.774;2024-03-08T12:41:00;100771.91;;;8.27;100.00
72961;BME280;61141;46.204;19.774;2024-03-08T12:44:07;100774.84;;;8.34;100.00
72961;BME280;61141;46.204;19.774;2024-03-08T12:47:13;100772.03;;;8.31;100.00
72961;BME280;61141;46.204;19.774;2024-03-08T12:50:16;100776.00;;;8.33;100.00
72961;BME280;61141;46.204;19.774;2024-03-08T12:53:19;100771.66;;;8.32;100.00
72961;BME280;61141;46.204;19.774;2024-03-08T12:56:30;100770.88;;;8.32;100.00
72961;BME280;61141;46.204;19.774;2024-03-08T12:59:33;100783.38;;;8.33;100.00
72961;BME280;61141;46.204;19.774;2024-03-08T13:02:36;100774.62;;;8.27;100.00
72961;BME280;61141;46.204;19.774;2024-03-08T13:05:39;100759.47;;;8.17;100.00
72961;BME280;61141;46.204;19.774;2024-03-08T13:08:42;100770.06;;;8.43;100.00
72961;BME280;61141;46.204;19.774;2024-03-08T13:11:46;100778.38;;;8.47;100.00
72961;BME280;61141;46.204;19.774;2024-03-08T13:14:49;100768.66;;;8.61;100.00
72961;BME280;61141;46.204;19.774;2024-03-08T13:17:53;100775.06;;;8.53;100.00
72961;BME280;61141;46.204;19.774;2024-03-08T13:20:55;100775.84;;;8.54;100.00
72961;BME280;61141;46.204;19.774;2024-03-08T13:24:00;100768.44;;;8.54;100.00
72961;BME280;61141;46.204;19.774;2024-03-08T13:27:04;100764.03;;;8.50;100.00
72961;BME280;61141;46.204;19.774;2024-03-08T13:30:19;100771.22;;;8.42;100.00
72961;BME280;61141;46.204;19.774;2024-03-08T13:33:26;100775.97;;;8.45;100.00
72961;BME280;61141;46.204;19.774;2024-03-08T13:36:30;100765.75;;;8.42;100.00
72961;BME280;61141;46.204;19.774;2024-03-08T13:39:41;100763.47;;;8.32;100.00
72961;BME280;61141;46.204;19.774;2024-03-08T13:42:47;100760.06;;;8.35;100.00
72961;BME280;61141;46.204;19.774;2024-03-08T13:45:51;100766.91;;;8.29;100.00
72961;BME280;61141;46.204;19.774;2024-03-08T13:48:55;100762.09;;;8.26;100.00
72961;BME280;61141;46.204;19.774;2024-03-08T13:52:03;100756.63;;;8.26;100.00
72961;BME280;61141;46.204;19.774;2024-03-08T13:55:07;100762.09;;;8.26;100.00
72961;BME280;61141;46.204;19.774;2024-03-08T13:58:10;100762.78;;;8.23;100.00
72961;BME280;61141;46.204;19.774;2024-03-08T14:01:16;100762.13;;;8.14;100.00
72961;BME280;61141;46.204;19.774;2024-03-08T14:04:19;100765.06;;;8.21;100.00
72961;BME280;61141;46.204;19.774;2024-03-08T14:07:23;100754.94;;;8.21;100.00
72961;BME280;61141;46.204;19.774;2024-03-08T14:10:26;100755.06;;;8.25;100.00
72961;BME280;61141;46.204;19.774;2024-03-08T14:13:29;100757.91;;;8.28;100.00
72961;BME280;61141;46.204;19.774;2024-03-08T14:16:32;100759.59;;;8.21;100.00
72961;BME280;61141;46.204;19.774;2024-03-08T14:19:35;100755.63;;;8.18;100.00
72961;BME280;61141;46.204;19.774;2024-03-08T14:22:38;100752.09;;;8.18;100.00
72961;BME280;61141;46.204;19.774;2024-03-08T14:25:41;100747.12;;;8.08;100.00
72961;BME280;61141;46.204;19.774;2024-03-08T14:28:44;100759.47;;;8.17;100.00
72961;BME280;61141;46.204;19.774;2024-03-08T14:31:48;100752.22;;;8.21;100.00
72961;BME280;61141;46.204;19.774;2024-03-08T14:34:51;100757.09;;;8.16;100.00
72961;BME280;61141;46.204;19.774;2024-03-08T14:37:54;100742.09;;;8.10;100.00
72961;BME280;61141;46.204;19.774;2024-03-08T14:40:57;100755.97;;;8.29;100.00
72961;BME280;61141;46.204;19.774;2024-03-08T14:43:59;100733.91;;;8.22;100.00
72961;BME280;61141;46.204;19.774;2024-03-08T14:47:03;100745.72;;;8.26;100.00
72961;BME280;61141;46.204;19.774;2024-03-08T14:50:09;100742.09;;;8.22;100.00
72961;BME280;61141;46.204;19.774;2024-03-08T14:53:12;100748.00;;;8.24;100.00
72961;BME280;61141;46.204;19.774;2024-03-08T14:56:18;100745.28;;;8.24;100.00
72961;BME280;61141;46.204;19.774;2024-03-08T14:59:21;100747.69;;;8.13;100.00
72961;BME280;61141;46.204;19.774;2024-03-08T15:02:24;100742.34;;;8.17;100.00
72961;BME280;61141;46.204;19.774;2024-03-08T15:05:27;100745.75;;;8.14;100.00
72961;BME280;61141;46.204;19.774;2024-03-08T15:08:31;100746.44;;;8.11;100.00
72961;BME280;61141;46.204;19.774;2024-03-08T15:11:35;100740.06;;;8.19;100.00
72961;BME280;61141;46.204;19.774;2024-03-08T15:14:40;100728.47;;;8.10;100.00
72961;BME280;61141;46.204;19.774;2024-03-08T15:17:43;100730.62;;;8.16;100.00
72961;BME280;61141;46.204;19.774;2024-03-08T15:20:47;100735.28;;;8.16;100.00
72961;BME280;61141;46.204;19.774;2024-03-08T15:23:51;100740.06;;;8.19;100.00
72961;BME280;61141;46.204;19.774;2024-03-08T15:26:55;100739.63;;;8.17;100.00
72961;BME280;61141;46.204;19.774;2024-03-08T15:29:58;100743.66;;;8.23;100.00
72961;BME280;61141;46.204;19.774;2024-03-08T15:33:01;100741.87;;;8.15;100.00
72961;BME280;61141;46.204;19.774;2024-03-08T15:36:06;100742.66;;;8.15;100.00
72961;BME280;61141;46.204;19.774;2024-03-08T15:39:12;100739.13;;;8.15;100.00
72961;BME280;61141;46.204;19.774;2024-03-08T15:42:16;100739.81;;;8.12;100.00
72961;BME280;61141;46.204;19.774;2024-03-08T15:45:19;100734.72;;;8.10;100.00
72961;BME280;61141;46.204;19.774;2024-03-08T15:48:22;100733.59;;;8.11;100.00
72961;BME280;61141;46.204;19.774;2024-03-08T15:51:25;100743.50;;;8.28;100.00
72961;BME280;61141;46.204;19.774;2024-03-08T15:54:29;100739.13;;;8.15;100.00